LFPG

Paris/Charles de Gaulle Airport

Airport
ICAO code
LFPG
IATA Code
CDG
Summary
ICAO Region
EUR
ICAO Territory
Location

Roissy-en-France, Ile-de-France

Serving
Paris
Elevation
392 ft
Coordinates
49° 0' 31" N , 2° 32' 37" E
KCC
Airport LOS
Parallel Runway Operation
Metar
Observation
LFPG 290830Z 02005KT 0400 R27L/0450N R09R/0600N R26R/0600N R08L/0600N R26L/0550N R08R/0600N R27R/0400N R09L/0550N FG VV/// 04/04 Q1018 TEMPO 0700 BCFG BKN001
Station
Paris-Aeroport Charles De Gaulle
Date/Time
2022-11-29 08:30:00
Wind direction
20°
Wind speed
05 kts
Lowest cloud amount
broken clouds
Temperature
4°C
Dew point
4°C
Humidity
100%
QNH
1018 hPa
Weather condition
n/a

Description

International airport serving Paris.

Climatology

Temperate Marine climate/Oceanic climate (Köppen climate classification Cfb). Moderately cool summer and comparatively warm winter. Prevailing south-westerly winds from the Atlantic Ocean.

Runways

Designator Length Width Surface Rops
08R/26L 2700 60 CON Yes/Yes
09L/27R 2700 60 ASP Yes/Yes
09R/27L 4200 45 ASP Yes/Yes
08L/26R 4215 45 ASP Yes/Yes

SKYbrary Partners:

Safety knowledge contributed by: